Eldred, Illinois
Current Conditions -  °F | °C
As of 10:54 PM on Friday 28 Nov 2014 (Local Time) from KSET Reporting Station
Clear Clear  
Wind Chill: 33°   Ceiling: Unl
Heat Index: 38°   Visibility: 10mi
Dew Point: 33°   Wind: 6mph
Humidity: 83%   Direction: 140°SE
Pressure: 29.89"   Gusts: NA
Location:  39.29°N, 90.55°W
Report Text: KSET 290454Z AUTO 14005KT 10SM CLR 03/01 A2989 RMK AO2 SLP122 T00330006
Loading
Personal Weather Stations






























Interactive Weather Map New forecast layout! Learn more

10-Day Weather Forecast

Advertisements
Track Severe Weather on mobile